createdAt,value
2022-09-26T00:01:11.568Z,3.00
2022-09-26T00:03:38.919Z,3.20
2022-09-26T00:06:07.642Z,3.00
2022-09-26T00:08:35.425Z,2.67
2022-09-26T00:11:04.607Z,2.63
2022-09-26T00:13:32.579Z,3.20
2022-09-26T00:15:59.065Z,2.93
2022-09-26T00:18:26.092Z,2.77
2022-09-26T00:20:52.843Z,3.07
2022-09-26T00:23:19.375Z,2.97
2022-09-26T00:25:50.769Z,3.10
2022-09-26T00:28:18.630Z,3.30
2022-09-26T00:30:45.506Z,2.60
2022-09-26T00:33:12.331Z,2.90
2022-09-26T00:35:39.318Z,2.97
2022-09-26T00:38:06.368Z,2.80
2022-09-26T00:40:33.272Z,3.27
2022-09-26T00:42:59.682Z,3.60
2022-09-26T00:45:30.498Z,2.73
2022-09-26T00:48:01.041Z,2.90
2022-09-26T00:50:35.248Z,3.10
2022-09-26T00:53:19.080Z,3.20
2022-09-26T00:55:51.772Z,2.87
2022-09-26T00:58:23.714Z,3.10
2022-09-26T01:00:51.469Z,2.60
2022-09-26T01:03:20.538Z,2.97
2022-09-26T01:05:47.570Z,2.43
2022-09-26T01:08:19.734Z,2.50
2022-09-26T01:10:46.154Z,3.20
2022-09-26T01:13:13.178Z,2.70
2022-09-26T01:15:39.607Z,2.73
2022-09-26T01:18:07.470Z,2.87
2022-09-26T01:20:54.534Z,3.53
2022-09-26T01:23:20.812Z,3.03
2022-09-26T01:26:01.085Z,2.60
2022-09-26T01:29:04.735Z,3.13
2022-09-26T01:32:04.496Z,2.83
2022-09-26T01:35:01.803Z,3.07
2022-09-26T01:37:59.496Z,2.80
2022-09-26T01:40:54.113Z,2.53
2022-09-26T01:43:35.944Z,2.77
2022-09-26T01:46:40.914Z,3.00
2022-09-26T01:49:13.528Z,2.47
2022-09-26T01:51:50.373Z,2.63
2022-09-26T01:54:22.659Z,2.97
2022-09-26T01:56:52.334Z,3.10
2022-09-26T01:59:31.817Z,2.60
2022-09-26T02:02:09.990Z,3.93
2022-09-26T02:04:40.536Z,2.63
2022-09-26T02:07:10.206Z,2.30
2022-09-26T02:09:43.274Z,2.43
2022-09-26T02:12:14.616Z,2.77
2022-09-26T02:14:44.711Z,2.37
2022-09-26T02:17:15.247Z,2.43
2022-09-26T02:19:56.362Z,2.53
2022-09-26T02:22:28.887Z,2.67
2022-09-26T02:24:55.451Z,2.20
2022-09-26T02:27:22.099Z,2.60
2022-09-26T02:29:48.448Z,2.90
2022-09-26T02:32:18.864Z,3.00
2022-09-26T02:34:48.394Z,2.80
2022-09-26T02:37:16.747Z,2.70
2022-09-26T02:39:45.593Z,2.87
2022-09-26T02:42:23.524Z,2.30
2022-09-26T02:45:21.271Z,2.50
2022-09-26T02:48:03.410Z,2.20
2022-09-26T02:50:38.995Z,2.97
2022-09-26T02:53:31.780Z,2.50
2022-09-26T02:56:11.224Z,2.23
2022-09-26T02:58:45.772Z,2.70
2022-09-26T03:01:32.810Z,2.77
2022-09-26T03:04:06.094Z,2.23
2022-09-26T03:06:40.565Z,2.50
2022-09-26T03:09:09.020Z,2.43
2022-09-26T03:11:36.072Z,2.63
2022-09-26T03:14:03.756Z,2.77
2022-09-26T03:16:36.343Z,2.77
2022-09-26T03:19:10.392Z,2.27
2022-09-26T03:21:37.422Z,2.50
2022-09-26T03:24:03.907Z,2.60
2022-09-26T03:26:31.843Z,2.33
2022-09-26T03:28:58.470Z,3.03
2022-09-26T03:31:25.192Z,2.33
2022-09-26T03:33:52.586Z,2.67
2022-09-26T03:36:21.877Z,2.70
2022-09-26T03:38:48.428Z,2.60
2022-09-26T03:41:14.875Z,2.40
2022-09-26T03:43:43.886Z,2.90
2022-09-26T03:46:15.812Z,2.73
2022-09-26T03:48:42.294Z,3.10
2022-09-26T03:51:11.850Z,2.90
2022-09-26T03:53:41.812Z,3.03
2022-09-26T03:56:16.674Z,3.17
2022-09-26T03:58:44.078Z,2.60
2022-09-26T04:01:13.082Z,2.93
2022-09-26T04:03:45.155Z,2.67
2022-09-26T04:06:19.626Z,2.77
2022-09-26T04:08:48.567Z,2.73
2022-09-26T04:11:18.658Z,2.73
2022-09-26T04:13:53.911Z,2.53
2022-09-26T04:16:22.557Z,2.90
2022-09-26T04:18:49.897Z,2.93
2022-09-26T04:21:16.606Z,3.03
2022-09-26T04:23:44.472Z,3.13
2022-09-26T04:26:22.471Z,3.73
2022-09-26T04:28:52.003Z,3.30
2022-09-26T04:31:18.560Z,3.77
2022-09-26T04:33:45.144Z,4.50
2022-09-26T04:36:13.358Z,3.87
2022-09-26T04:38:41.048Z,4.00
2022-09-26T04:41:10.058Z,3.80
2022-09-26T04:43:37.056Z,3.80
2022-09-26T04:46:09.168Z,3.87
2022-09-26T04:48:36.083Z,4.07
2022-09-26T04:51:11.940Z,3.90
2022-09-26T04:53:39.415Z,3.60
2022-09-26T04:56:07.101Z,4.27
2022-09-26T04:58:33.691Z,4.93
2022-09-26T05:01:05.467Z,5.37
2022-09-26T05:03:32.474Z,4.00
2022-09-26T05:05:59.299Z,3.80
2022-09-26T05:08:26.892Z,4.27
2022-09-26T05:10:55.956Z,3.73
2022-09-26T05:13:23.939Z,4.10
2022-09-26T05:15:53.213Z,3.80
2022-09-26T05:18:20.902Z,3.70
2022-09-26T05:20:48.215Z,3.80
2022-09-26T05:23:34.743Z,4.13
2022-09-26T05:26:19.742Z,4.60
2022-09-26T05:28:50.659Z,7.80
2022-09-26T05:31:18.362Z,5.63
2022-09-26T05:33:46.252Z,4.47
2022-09-26T05:36:13.911Z,3.93
2022-09-26T05:38:40.307Z,4.17
2022-09-26T05:41:06.804Z,4.77
2022-09-26T05:43:34.925Z,4.60
2022-09-26T05:46:04.583Z,4.27
2022-09-26T05:48:32.861Z,4.07
2022-09-26T05:51:13.647Z,4.23
2022-09-26T05:53:41.731Z,4.23
2022-09-26T05:56:09.379Z,4.30
2022-09-26T05:58:37.652Z,3.93
2022-09-26T06:01:09.015Z,4.60
2022-09-26T06:03:36.350Z,4.23
2022-09-26T06:06:19.668Z,4.20
2022-09-26T06:08:46.796Z,4.40
2022-09-26T06:11:18.934Z,4.20
2022-09-26T06:13:46.490Z,4.13
2022-09-26T06:16:18.317Z,4.47
2022-09-26T06:18:46.787Z,4.83
2022-09-26T06:21:15.468Z,5.30
2022-09-26T06:23:42.044Z,4.63
2022-09-26T06:26:12.899Z,4.70
2022-09-26T06:28:40.173Z,5.13
2022-09-26T06:31:11.407Z,4.60
2022-09-26T06:33:37.798Z,4.70
2022-09-26T06:36:09.851Z,4.43
2022-09-26T06:38:36.984Z,4.83
2022-09-26T06:41:04.090Z,4.83
2022-09-26T06:43:31.365Z,4.50
2022-09-26T06:45:57.751Z,4.43
2022-09-26T06:48:27.224Z,4.47
2022-09-26T06:50:57.179Z,4.00
2022-09-26T06:53:23.577Z,4.30
2022-09-26T06:55:49.924Z,4.07
2022-09-26T06:58:16.642Z,4.23
2022-09-26T07:00:43.120Z,4.30
2022-09-26T07:03:09.977Z,4.60
2022-09-26T07:05:36.387Z,3.77
2022-09-26T07:08:03.109Z,4.20
2022-09-26T07:10:30.321Z,4.00
2022-09-26T07:13:03.097Z,4.00
2022-09-26T07:15:33.547Z,3.60
2022-09-26T07:18:06.290Z,3.70
2022-09-26T07:20:36.159Z,3.37
2022-09-26T07:23:08.693Z,3.30
2022-09-26T07:25:35.475Z,3.83
2022-09-26T07:28:02.275Z,3.70
2022-09-26T07:30:28.695Z,3.70
2022-09-26T07:33:03.493Z,3.20
2022-09-26T07:35:35.383Z,3.70
2022-09-26T07:38:02.500Z,3.03
2022-09-26T07:40:28.928Z,3.20
2022-09-26T07:43:18.431Z,3.20
2022-09-26T07:46:04.960Z,3.43
2022-09-26T07:48:49.964Z,3.03
2022-09-26T07:51:16.612Z,2.93
2022-09-26T07:53:42.939Z,2.83
2022-09-26T07:56:12.777Z,2.70
2022-09-26T07:58:43.499Z,2.90
2022-09-26T08:01:16.105Z,2.60
2022-09-26T08:03:45.308Z,2.90
2022-09-26T08:06:13.380Z,3.03
2022-09-26T08:08:41.394Z,3.80
2022-09-26T08:11:16.876Z,3.77
2022-09-26T08:13:44.185Z,4.40
2022-09-26T08:16:11.598Z,3.40
2022-09-26T08:18:38.236Z,3.33
2022-09-26T08:21:08.599Z,3.07
2022-09-26T08:23:35.337Z,3.17
2022-09-26T08:26:07.094Z,3.17
2022-09-26T08:28:35.027Z,2.80
2022-09-26T08:31:02.844Z,2.83
2022-09-26T08:33:29.775Z,2.50
2022-09-26T08:36:02.782Z,2.53
2022-09-26T08:38:29.689Z,2.00
2022-09-26T08:41:25.895Z,2.47
2022-09-26T08:44:01.563Z,1.73
2022-09-26T08:46:48.166Z,2.00
2022-09-26T08:49:42.847Z,2.00
2022-09-26T08:52:24.823Z,1.53
2022-09-26T08:54:54.629Z,1.70
2022-09-26T08:57:44.735Z,1.50
2022-09-26T09:00:24.222Z,1.50
2022-09-26T09:03:05.936Z,1.50
2022-09-26T09:05:39.076Z,1.40
2022-09-26T09:08:13.579Z,1.50
2022-09-26T09:11:23.338Z,1.50
2022-09-26T09:14:04.870Z,1.40
2022-09-26T09:16:53.312Z,1.50
2022-09-26T09:19:52.320Z,2.10
2022-09-26T09:22:38.893Z,1.40
2022-09-26T09:25:16.651Z,1.57
2022-09-26T09:28:08.476Z,1.70
2022-09-26T09:30:55.378Z,1.80
2022-09-26T09:33:23.406Z,1.97
2022-09-26T09:35:55.000Z,1.60
2022-09-26T09:38:29.179Z,1.50
2022-09-26T09:41:10.947Z,1.50
2022-09-26T09:43:51.846Z,1.83
2022-09-26T09:46:29.357Z,1.70
2022-09-26T09:49:08.128Z,1.53
2022-09-26T09:52:05.340Z,2.13
2022-09-26T09:54:49.556Z,1.80
2022-09-26T09:57:15.834Z,2.17
2022-09-26T10:00:03.058Z,1.67
2022-09-26T10:03:01.253Z,1.80
2022-09-26T10:05:45.464Z,2.40
2022-09-26T10:08:13.229Z,1.77
2022-09-26T10:10:46.544Z,1.80
2022-09-26T10:13:13.048Z,2.00
2022-09-26T10:15:50.412Z,2.00
2022-09-26T10:18:25.707Z,2.30
2022-09-26T10:20:59.157Z,2.23
2022-09-26T10:23:54.870Z,2.20
2022-09-26T10:26:31.179Z,2.47
2022-09-26T10:29:00.179Z,2.60
2022-09-26T10:31:29.644Z,2.70
2022-09-26T10:34:00.030Z,2.60
2022-09-26T10:36:32.147Z,2.30
2022-09-26T10:39:20.957Z,1.73
2022-09-26T10:41:48.999Z,1.90
2022-09-26T10:44:46.232Z,2.17
2022-09-26T10:47:16.831Z,2.20
2022-09-26T10:49:51.112Z,1.93
2022-09-26T10:52:24.591Z,2.10
2022-09-26T10:55:16.029Z,2.00
2022-09-26T10:57:46.876Z,1.90
2022-09-26T11:00:40.303Z,2.07
2022-09-26T11:03:10.654Z,2.47
2022-09-26T11:05:59.269Z,2.50
2022-09-26T11:08:31.491Z,2.40
2022-09-26T11:11:00.469Z,2.70
2022-09-26T11:13:32.145Z,2.40
2022-09-26T11:16:01.690Z,1.93
2022-09-26T11:18:45.759Z,2.00
2022-09-26T11:21:29.217Z,2.10
2022-09-26T11:24:26.574Z,2.30
2022-09-26T11:27:19.087Z,2.20
2022-09-26T11:29:45.410Z,2.10
2022-09-26T11:32:42.196Z,2.10
2022-09-26T11:35:30.246Z,2.10
2022-09-26T11:38:05.833Z,2.13
2022-09-26T11:40:57.757Z,2.20
2022-09-26T11:43:45.100Z,2.20
2022-09-26T11:46:34.598Z,2.00
2022-09-26T11:49:30.160Z,2.20
2022-09-26T11:52:49.457Z,2.13
2022-09-26T11:55:24.195Z,1.73
2022-09-26T11:58:08.395Z,1.87
2022-09-26T12:01:03.103Z,1.87
2022-09-26T12:03:30.391Z,2.10
2022-09-26T12:06:21.467Z,1.70
2022-09-26T12:09:11.159Z,1.90
2022-09-26T12:11:44.287Z,1.70
2022-09-26T12:14:29.149Z,1.57
2022-09-26T12:17:07.822Z,1.70
2022-09-26T12:19:57.627Z,1.77
2022-09-26T12:22:40.510Z,1.87
2022-09-26T12:25:10.849Z,1.70
2022-09-26T12:28:35.030Z,1.80
2022-09-26T12:31:17.256Z,1.33
2022-09-26T12:34:02.494Z,1.20
2022-09-26T12:36:58.563Z,1.30
2022-09-26T12:39:46.126Z,1.63
2022-09-26T12:42:42.458Z,1.40
2022-09-26T12:45:28.685Z,1.97
2022-09-26T12:48:25.381Z,1.77
2022-09-26T12:51:16.203Z,1.30
2022-09-26T12:54:34.987Z,1.47
2022-09-26T12:57:17.283Z,1.90
2022-09-26T12:59:52.251Z,1.30
2022-09-26T13:02:33.236Z,1.30
2022-09-26T13:05:37.354Z,1.40
2022-09-26T13:08:17.034Z,1.57
2022-09-26T13:11:08.053Z,1.53
2022-09-26T13:13:46.885Z,1.80
2022-09-26T13:16:49.101Z,1.97
2022-09-26T13:19:39.350Z,1.60
2022-09-26T13:22:27.214Z,1.33
2022-09-26T13:25:02.292Z,1.70
2022-09-26T13:27:36.118Z,1.77
2022-09-26T13:30:13.362Z,1.67
2022-09-26T13:32:53.173Z,1.43
2022-09-26T13:35:23.575Z,1.60
2022-09-26T13:38:17.852Z,2.40
2022-09-26T13:41:09.473Z,1.80
2022-09-26T13:43:47.876Z,2.13
2022-09-26T13:46:52.637Z,1.90
2022-09-26T13:49:50.905Z,2.50
2022-09-26T13:52:27.588Z,2.70
2022-09-26T13:55:01.818Z,2.60
2022-09-26T13:57:32.619Z,3.20
2022-09-26T13:59:59.135Z,2.60
2022-09-26T14:02:31.864Z,2.43
2022-09-26T14:05:01.337Z,2.47
2022-09-26T14:07:58.456Z,2.20
2022-09-26T14:10:24.849Z,2.10
2022-09-26T14:13:05.076Z,2.80
2022-09-26T14:15:56.951Z,2.60
2022-09-26T14:18:28.049Z,2.17
2022-09-26T14:21:09.716Z,2.37
2022-09-26T14:23:44.907Z,2.00
2022-09-26T14:26:18.416Z,2.20
2022-09-26T14:29:25.144Z,1.83
2022-09-26T14:32:01.281Z,2.27
2022-09-26T14:34:33.669Z,1.80
2022-09-26T14:37:04.330Z,2.60
2022-09-26T14:39:43.753Z,2.20
2022-09-26T14:42:22.347Z,2.60
2022-09-26T14:44:57.860Z,2.53
2022-09-26T14:47:27.226Z,5.80
2022-09-26T14:50:06.232Z,2.57
2022-09-26T14:52:34.139Z,2.67
2022-09-26T14:55:06.022Z,2.20
2022-09-26T14:57:35.091Z,2.37
2022-09-26T15:00:02.584Z,2.10
2022-09-26T15:02:39.030Z,2.20
2022-09-26T15:05:08.374Z,2.03
2022-09-26T15:07:42.597Z,2.00
2022-09-26T15:10:11.693Z,2.20
2022-09-26T15:12:44.196Z,2.10
2022-09-26T15:15:28.774Z,1.80
2022-09-26T15:18:03.446Z,1.90
2022-09-26T15:20:36.382Z,2.43
2022-09-26T15:23:18.818Z,2.33
2022-09-26T15:25:45.723Z,2.10
2022-09-26T15:28:12.154Z,2.20
2022-09-26T15:30:41.417Z,2.00
2022-09-26T15:33:16.723Z,2.07
2022-09-26T15:35:53.688Z,2.07
2022-09-26T15:38:20.674Z,2.00
2022-09-26T15:41:01.357Z,2.10
2022-09-26T15:43:34.699Z,2.73
2022-09-26T15:46:05.971Z,2.30
2022-09-26T15:48:42.806Z,2.53
2022-09-26T15:51:20.276Z,2.30
2022-09-26T15:54:01.243Z,1.80
2022-09-26T15:56:32.922Z,2.17
2022-09-26T15:59:37.369Z,2.60
2022-09-26T16:02:23.480Z,2.57
2022-09-26T16:04:52.823Z,2.07
2022-09-26T16:07:26.582Z,2.13
2022-09-26T16:09:55.917Z,2.43
2022-09-26T16:12:25.278Z,2.33
2022-09-26T16:15:02.783Z,2.50
2022-09-26T16:17:35.703Z,2.30
2022-09-26T16:20:10.262Z,2.53
2022-09-26T16:22:36.679Z,2.73
2022-09-26T16:25:15.108Z,2.40
2022-09-26T16:27:41.862Z,2.80
2022-09-26T16:30:23.812Z,2.33
2022-09-26T16:33:13.455Z,2.87
2022-09-26T16:35:47.875Z,2.43
2022-09-26T16:38:33.842Z,2.50
2022-09-26T16:42:00.211Z,2.60
2022-09-26T16:44:35.315Z,2.53
2022-09-26T16:47:05.475Z,2.50
2022-09-26T16:49:39.091Z,2.67
2022-09-26T16:52:27.230Z,2.93
2022-09-26T16:54:58.741Z,2.83
2022-09-26T16:57:31.843Z,2.63
2022-09-26T17:00:23.616Z,2.70
2022-09-26T17:02:50.379Z,2.70
2022-09-26T17:05:20.173Z,2.97
2022-09-26T17:07:48.412Z,2.97
2022-09-26T17:10:15.614Z,2.57
2022-09-26T17:12:42.440Z,2.90
2022-09-26T17:15:17.366Z,2.73
2022-09-26T17:17:43.806Z,2.83
2022-09-26T17:20:13.212Z,2.50
2022-09-26T17:22:39.673Z,3.30
2022-09-26T17:25:06.665Z,2.73
2022-09-26T17:27:35.883Z,2.80
2022-09-26T17:30:05.044Z,3.07
2022-09-26T17:32:35.748Z,2.50
2022-09-26T17:35:12.216Z,3.80
2022-09-26T17:37:38.835Z,4.97
2022-09-26T17:40:24.067Z,18.23
2022-09-26T17:42:57.588Z,18.33
2022-09-26T17:45:30.278Z,5.17
2022-09-26T17:48:03.645Z,3.23
2022-09-26T17:50:32.598Z,3.33
2022-09-26T17:53:01.426Z,3.20
2022-09-26T17:55:28.698Z,3.07
2022-09-26T17:57:55.576Z,3.10
2022-09-26T18:00:22.043Z,2.77
2022-09-26T18:02:55.688Z,3.23
2022-09-26T18:05:37.188Z,3.17
2022-09-26T18:08:22.353Z,3.07
2022-09-26T18:11:10.887Z,2.77
2022-09-26T18:13:47.522Z,2.67
2022-09-26T18:16:16.161Z,2.90
2022-09-26T18:18:42.587Z,3.00
2022-09-26T18:21:15.520Z,3.33
2022-09-26T18:23:52.278Z,2.80
2022-09-26T18:26:27.384Z,2.73
2022-09-26T18:28:55.703Z,3.10
2022-09-26T18:31:28.236Z,2.83
2022-09-26T18:33:56.049Z,3.30
2022-09-26T18:36:23.514Z,3.23
2022-09-26T18:38:50.103Z,6.03
2022-09-26T18:41:20.692Z,3.10
2022-09-26T18:43:51.056Z,2.90
2022-09-26T18:46:18.677Z,4.20
2022-09-26T18:48:46.337Z,3.97
2022-09-26T18:51:12.883Z,3.17
2022-09-26T18:53:40.394Z,3.23
2022-09-26T18:56:27.606Z,3.40
2022-09-26T18:58:54.105Z,4.13
2022-09-26T19:01:34.617Z,3.30
2022-09-26T19:04:03.913Z,2.90
2022-09-26T19:06:40.662Z,3.20
2022-09-26T19:09:19.856Z,5.53
2022-09-26T19:11:47.416Z,3.17
2022-09-26T19:14:15.796Z,2.90
2022-09-26T19:16:43.604Z,4.83
2022-09-26T19:19:10.556Z,4.60
2022-09-26T19:21:42.909Z,3.40
2022-09-26T19:24:20.462Z,3.00
2022-09-26T19:26:54.619Z,3.30
2022-09-26T19:29:35.568Z,2.70
2022-09-26T19:32:03.445Z,4.57
2022-09-26T19:34:32.862Z,3.90
2022-09-26T19:37:01.418Z,3.60
2022-09-26T19:39:28.021Z,3.40
2022-09-26T19:41:54.538Z,3.40
2022-09-26T19:44:20.977Z,5.60
2022-09-26T19:46:47.566Z,3.93
2022-09-26T19:49:17.987Z,4.00
2022-09-26T19:51:45.141Z,3.90
2022-09-26T19:54:17.016Z,3.87
2022-09-26T19:56:44.212Z,3.57
2022-09-26T19:59:12.583Z,4.03
2022-09-26T20:01:41.634Z,3.63
2022-09-26T20:04:17.609Z,3.00
2022-09-26T20:06:44.971Z,3.07
2022-09-26T20:09:19.337Z,2.80
2022-09-26T20:11:46.286Z,3.67
2022-09-26T20:14:25.086Z,3.90
2022-09-26T20:17:14.553Z,3.07
2022-09-26T20:19:45.856Z,2.77
2022-09-26T20:22:16.038Z,2.90
2022-09-26T20:24:43.735Z,2.87
2022-09-26T20:27:17.806Z,2.77
2022-09-26T20:30:03.868Z,2.80
2022-09-26T20:32:30.384Z,4.70
2022-09-26T20:35:00.234Z,4.23
2022-09-26T20:37:39.817Z,5.80
2022-09-26T20:40:14.225Z,14.03
2022-09-26T20:42:41.528Z,4.30
2022-09-26T20:45:15.891Z,3.83
2022-09-26T20:47:43.917Z,5.93
2022-09-26T20:50:15.728Z,5.23
2022-09-26T20:52:42.722Z,5.83
2022-09-26T20:55:19.766Z,5.40
2022-09-26T20:57:46.692Z,6.30
2022-09-26T21:00:19.934Z,6.20
2022-09-26T21:02:54.161Z,7.13
2022-09-26T21:05:27.276Z,6.67
2022-09-26T21:07:55.906Z,5.90
2022-09-26T21:10:33.212Z,4.90
2022-09-26T21:13:00.744Z,5.03
2022-09-26T21:15:29.646Z,5.80
2022-09-26T21:17:56.402Z,5.00
2022-09-26T21:20:29.145Z,4.50
2022-09-26T21:22:56.640Z,4.77
2022-09-26T21:25:25.263Z,3.63
2022-09-26T21:27:57.864Z,3.63
2022-09-26T21:30:24.734Z,3.60
2022-09-26T21:32:57.522Z,3.30
2022-09-26T21:35:30.831Z,3.77
2022-09-26T21:37:58.859Z,3.47
2022-09-26T21:40:29.661Z,3.20
2022-09-26T21:43:01.476Z,3.73
2022-09-26T21:45:27.941Z,3.00
2022-09-26T21:47:56.804Z,3.47
2022-09-26T21:50:26.500Z,4.13
2022-09-26T21:53:01.268Z,3.20
2022-09-26T21:55:33.684Z,3.80
2022-09-26T21:58:08.737Z,3.77
2022-09-26T22:00:35.101Z,3.90
2022-09-26T22:03:01.706Z,3.73
2022-09-26T22:05:28.917Z,3.63
2022-09-26T22:07:56.907Z,3.80
2022-09-26T22:10:23.259Z,3.77
2022-09-26T22:12:52.080Z,4.27
2022-09-26T22:15:19.170Z,4.17
2022-09-26T22:17:45.637Z,3.87
2022-09-26T22:20:12.150Z,4.17
2022-09-26T22:22:38.590Z,3.87
2022-09-26T22:25:06.741Z,4.50
2022-09-26T22:27:34.862Z,3.93
2022-09-26T22:30:01.319Z,4.57
2022-09-26T22:32:27.809Z,5.60
2022-09-26T22:34:54.151Z,5.17
2022-09-26T22:37:20.529Z,4.47
2022-09-26T22:39:47.014Z,4.33
2022-09-26T22:42:13.808Z,5.00
2022-09-26T22:44:40.249Z,4.47
2022-09-26T22:47:06.674Z,4.07
2022-09-26T22:49:33.035Z,3.50
2022-09-26T22:51:59.719Z,3.60
2022-09-26T22:54:26.378Z,3.67
2022-09-26T22:56:52.751Z,3.00
2022-09-26T22:59:19.085Z,2.60
2022-09-26T23:01:45.588Z,2.73
2022-09-26T23:04:11.998Z,2.30
2022-09-26T23:06:38.390Z,2.57
2022-09-26T23:09:04.873Z,2.70
2022-09-26T23:11:31.587Z,2.03
2022-09-26T23:13:58.004Z,2.70
2022-09-26T23:16:27.757Z,2.50
2022-09-26T23:18:54.421Z,2.10
2022-09-26T23:21:25.561Z,2.10
2022-09-26T23:23:57.505Z,2.30
2022-09-26T23:26:27.335Z,2.47
2022-09-26T23:28:55.156Z,2.70
2022-09-26T23:31:22.816Z,2.23
2022-09-26T23:33:49.634Z,2.50
2022-09-26T23:36:16.265Z,2.90
2022-09-26T23:38:43.050Z,2.97
2022-09-26T23:41:11.219Z,3.03
2022-09-26T23:43:38.330Z,2.30
2022-09-26T23:46:05.219Z,2.13
2022-09-26T23:48:32.124Z,2.47
2022-09-26T23:50:58.784Z,2.50
2022-09-26T23:53:25.366Z,2.70
2022-09-26T23:55:52.215Z,3.10
2022-09-26T23:58:18.944Z,2.90
